Time;durP1;ratioP1;P1;durP2;ratioP2;P2;SDS_P1;SDS_P2;PMS_P1;PMS_P2;Temp;Humidity;BMP_temperature;BMP_pressure;BME280_temperature;BME280_humidity;BME280_pressure;Samples;Min_cycle;Max_cycle;Signal;HPM_P1;HPM_P2
2023/09/23 00:01:15;;;;;;;3.20;1.75;;;20.30;97.20;;;19.21;86.43;99344.84;10235123;28;96936;-89
2023/09/23 00:06:22;;;;;;;3.20;1.75;;;20.30;97.20;;;19.10;86.50;99344.94;10255033;28;98239;-89
2023/09/23 00:11:26;;;;;;;6.45;2.17;;;20.20;97.20;;;19.05;86.84;99348.34;10253648;28;96643;-90
2023/09/23 00:16:29;;;;;;;4.95;2.05;;;20.10;97.30;;;18.97;87.40;99343.38;10274957;28;97530;-89
2023/09/23 00:21:34;;;;;;;4.72;1.75;;;20.10;97.40;;;18.87;87.16;99349.38;10296041;28;97522;-89
2023/09/23 00:26:38;;;;;;;5.90;1.77;;;20.00;97.50;;;18.84;87.40;99341.00;10279287;28;96603;-90
2023/09/23 00:31:43;;;;;;;3.13;1.70;;;19.90;97.60;;;18.77;87.77;99341.13;10234531;28;96666;-92
2023/09/23 00:36:47;;;;;;;5.47;2.08;;;19.90;97.60;;;18.70;87.74;99335.06;10254084;28;97002;-91
2023/09/23 00:41:51;;;;;;;4.53;2.00;;;19.80;97.80;;;18.62;88.37;99346.22;10277925;28;96496;-91
2023/09/23 00:46:56;;;;;;;4.45;1.92;;;19.70;97.90;;;18.57;88.66;99362.25;10283405;28;98344;-91
2023/09/23 00:52:06;;;;;;;5.72;1.90;;;19.70;98.00;;;18.55;88.69;99354.44;10245321;28;96622;-91
2023/09/23 00:57:12;;;;;;;3.42;1.80;;;19.60;98.00;;;18.59;88.76;99354.75;10219743;28;96666;-91
2023/09/23 01:02:16;;;;;;;2.65;1.52;;;19.70;98.10;;;18.62;88.83;99352.41;10285415;28;96830;-91
2023/09/23 01:07:21;;;;;;;3.72;1.77;;;19.80;98.20;;;18.62;89.17;99340.84;10258243;28;96656;-90
2023/09/23 01:12:25;;;;;;;3.05;1.85;;;19.70;98.30;;;18.61;89.17;99340.00;10239525;28;96729;-91
2023/09/23 01:17:29;;;;;;;4.32;1.85;;;19.70;98.30;;;18.59;89.27;99344.84;10223548;28;98740;-90
2023/09/23 01:22:34;;;;;;;5.47;2.90;;;19.70;98.40;;;18.53;89.67;99348.47;10234748;28;96712;-91
2023/09/23 01:27:39;;;;;;;7.90;3.70;;;19.70;98.50;;;18.54;89.65;99360.06;10236141;28;96546;-90
2023/09/23 01:32:45;;;;;;;7.45;3.10;;;19.60;98.70;;;18.54;90.02;99352.00;10247914;28;96641;-91
2023/09/23 01:37:50;;;;;;;4.88;2.10;;;19.60;98.70;;;18.57;90.17;99370.31;10255178;28;97424;-91
2023/09/23 01:42:54;;;;;;;3.65;2.05;;;19.70;98.90;;;18.55;90.83;99386.72;10268321;28;97391;-91
2023/09/23 01:47:58;;;;;;;4.80;2.33;;;19.70;99.10;;;18.57;91.80;99391.84;10236344;28;96904;-91
2023/09/23 01:53:05;;;;;;;5.45;1.70;;;19.60;99.20;;;18.59;91.69;99381.66;10249931;28;97289;-89
2023/09/23 01:58:09;;;;;;;3.95;1.80;;;19.70;99.40;;;18.63;91.69;99385.50;10216791;28;96668;-89
2023/09/23 02:03:13;;;;;;;5.80;2.13;;;19.70;99.40;;;18.67;92.27;99395.59;10262001;28;97571;-88
2023/09/23 02:08:17;;;;;;;2.70;1.90;;;19.70;99.50;;;18.68;92.13;99399.09;10253715;28;98249;-88
2023/09/23 02:13:22;;;;;;;2.95;1.80;;;19.80;99.60;;;18.69;92.29;99409.63;10279750;28;96505;-88
2023/09/23 02:18:26;;;;;;;5.80;2.40;;;19.80;99.70;;;18.72;92.90;99402.94;10237711;28;98074;-88
2023/09/23 02:23:33;;;;;;;6.50;1.90;;;19.80;99.80;;;18.72;92.71;99419.09;10222360;28;96609;-88
2023/09/23 02:28:37;;;;;;;2.55;1.70;;;19.80;99.90;;;18.71;92.74;99410.22;10231388;28;96548;-88
2023/09/23 02:33:40;;;;;;;4.78;2.25;;;19.80;99.90;;;18.71;93.18;99398.59;10286634;28;96717;-88
2023/09/23 02:38:44;;;;;;;3.65;2.08;;;19.80;99.90;;;18.74;92.79;99408.91;10265093;28;97778;-88
2023/09/23 02:43:48;;;;;;;6.75;2.22;;;19.90;99.90;;;18.80;92.78;99410.63;10234912;28;96658;-89
2023/09/23 02:48:51;;;;;;;5.80;2.80;;;19.90;99.90;;;18.84;92.33;99395.66;10251108;28;97337;-89
2023/09/23 02:53:56;;;;;;;3.55;1.75;;;20.00;99.90;;;18.89;91.93;99424.50;10236922;28;96571;-88
2023/09/23 02:59:01;;;;;;;4.00;2.50;;;20.00;99.90;;;18.91;92.22;99444.75;10246623;28;96967;-89
2023/09/23 03:04:16;;;;;;;5.18;2.50;;;20.10;99.90;;;18.91;92.01;99449.34;10237522;28;97545;-89
2023/09/23 03:09:25;;;;;;;4.85;2.40;;;20.10;99.90;;;18.89;91.99;99448.72;10286832;28;96617;-90
2023/09/23 03:14:36;;;;;;;4.53;2.27;;;20.00;99.90;;;18.88;92.20;99439.03;10232656;28;97085;-88
2023/09/23 03:19:44;;;;;;;4.00;2.15;;;20.00;99.90;;;18.88;91.97;99431.75;10251711;28;97880;-90
2023/09/23 03:24:48;;;;;;;5.78;1.95;;;20.00;99.90;;;18.89;92.66;99440.66;10253680;28;96852;-89
2023/09/23 03:29:54;;;;;;;4.75;2.20;;;20.00;99.90;;;18.90;92.74;99426.16;10285644;28;96569;-90
2023/09/23 03:34:59;;;;;;;5.05;2.40;;;20.10;99.90;;;18.91;92.52;99423.22;10267858;28;96674;-90
2023/09/23 03:40:05;;;;;;;4.38;2.40;;;20.10;99.90;;;18.88;92.81;99415.63;10265747;28;96594;-89
2023/09/23 03:45:10;;;;;;;4.60;2.08;;;20.10;99.90;;;18.83;93.40;99410.16;10224945;28;98127;-90
2023/09/23 03:50:15;;;;;;;4.03;2.60;;;20.00;99.90;;;18.77;93.52;99408.41;10284940;28;97655;-90
2023/09/23 03:55:20;;;;;;;3.90;2.00;;;19.90;99.90;;;18.69;93.74;99438.41;10244030;28;96658;-91
2023/09/23 04:00:27;;;;;;;4.13;2.20;;;19.80;99.90;;;18.59;95.05;99435.47;10275488;28;96836;-91
2023/09/23 04:05:31;;;;;;;4.80;2.88;;;19.70;99.90;;;18.50;95.87;99437.72;10259698;28;97016;-92
2023/09/23 04:10:39;;;;;;;7.03;2.90;;;19.70;99.90;;;18.48;96.87;99429.09;10242645;28;97049;-91
2023/09/23 04:15:44;;;;;;;5.20;3.08;;;19.70;99.90;;;18.45;97.73;99440.31;10247448;28;96682;-91
2023/09/23 04:20:49;;;;;;;6.25;3.00;;;19.60;99.90;;;18.43;98.47;99442.44;10259265;28;96601;-92
2023/09/23 04:25:52;;;;;;;11.98;7.25;;;19.60;99.90;;;18.41;99.15;99444.53;10241672;28;96539;-90
2023/09/23 04:30:59;;;;;;;6.63;3.10;;;19.60;99.90;;;18.41;99.74;99455.28;10246881;28;96562;-91
2023/09/23 04:36:03;;;;;;;5.88;2.58;;;19.50;99.90;;;18.42;100.00;99451.56;10283955;28;98457;-88
2023/09/23 04:41:06;;;;;;;6.40;2.75;;;19.60;99.90;;;18.42;99.86;99457.75;10261228;28;96627;-88
2023/09/23 04:46:14;;;;;;;4.65;2.85;;;19.60;99.90;;;18.43;99.83;99456.69;10227290;28;96859;-88
2023/09/23 04:51:18;;;;;;;6.82;3.00;;;19.60;99.90;;;18.40;100.00;99480.53;10285445;28;96549;-89
2023/09/23 04:56:22;;;;;;;5.75;2.83;;;19.50;99.90;;;18.39;100.00;99476.22;10265833;28;96658;-89
2023/09/23 05:01:26;;;;;;;6.68;3.03;;;19.50;99.90;;;18.39;100.00;99479.72;10232678;28;96585;-89
2023/09/23 05:06:30;;;;;;;5.53;2.75;;;19.50;99.90;;;18.39;100.00;99481.59;10240142;28;98150;-88
2023/09/23 05:11:35;;;;;;;6.57;3.00;;;19.50;99.90;;;18.33;100.00;99491.44;10232634;28;97661;-88
2023/09/23 05:16:39;;;;;;;7.57;3.30;;;19.50;99.90;;;18.33;100.00;99496.00;10256453;28;97794;-88
2023/09/23 05:21:45;;;;;;;7.63;3.55;;;19.40;99.90;;;18.35;100.00;99518.94;10241726;28;96793;-89
2023/09/23 05:26:51;;;;;;;5.70;3.17;;;19.40;99.90;;;18.40;100.00;99537.03;10254457;28;98069;-89
2023/09/23 05:31:56;;;;;;;6.95;3.10;;;19.50;99.90;;;18.48;100.00;99546.63;10279665;28;98417;-88
2023/09/23 05:36:59;;;;;;;9.00;3.17;;;19.60;99.90;;;18.56;100.00;99557.03;10266420;28;96594;-88
2023/09/23 05:42:03;;;;;;;5.32;3.55;;;19.70;99.90;;;18.64;100.00;99553.97;10251275;28;98267;-89
2023/09/23 05:47:08;;;;;;;6.28;2.80;;;19.80;99.90;;;18.72;100.00;99569.81;10272271;28;96731;-89
2023/09/23 05:52:14;;;;;;;7.53;2.80;;;19.90;99.90;;;18.81;100.00;99578.31;10237973;28;97445;-89
2023/09/23 05:57:19;;;;;;;6.85;2.83;;;19.90;99.90;;;18.88;100.00;99589.78;10242383;28;98132;-89
2023/09/23 06:02:24;;;;;;;4.07;2.88;;;20.00;99.90;;;18.96;100.00;99609.09;10260351;28;98763;-89
2023/09/23 06:07:29;;;;;;;4.47;3.00;;;20.10;99.90;;;19.05;100.00;99622.19;10229155;28;96704;-89
2023/09/23 06:12:35;;;;;;;8.63;3.10;;;20.20;99.90;;;19.14;100.00;99618.91;10256781;28;96709;-96
2023/09/23 06:17:39;;;;;;;4.93;3.22;;;20.30;99.90;;;19.25;100.00;99627.97;10243322;28;97300;-96
2023/09/23 06:22:44;;;;;;;8.02;3.00;;;20.40;99.90;;;19.29;100.00;99629.16;10259760;28;96784;-96
2023/09/23 06:27:48;;;;;;;24.92;5.43;;;20.40;99.90;;;19.27;100.00;99636.66;10285725;23;96748;-90
2023/09/23 06:32:51;;;;;;;4.53;2.42;;;20.40;99.90;;;19.13;100.00;99624.50;10255328;28;96683;-90
2023/09/23 06:37:56;;;;;;;8.15;3.55;;;20.30;99.90;;;18.98;100.00;99647.34;10255328;28;98884;-91
2023/09/23 06:43:03;;;;;;;5.80;3.17;;;20.20;99.90;;;18.83;100.00;99651.56;10242401;28;96807;-92
2023/09/23 06:48:06;;;;;;;5.15;2.78;;;20.10;99.90;;;18.66;100.00;99681.88;10270417;28;96813;-92
2023/09/23 06:53:10;;;;;;;4.82;2.45;;;19.90;99.90;;;18.49;100.00;99713.19;10248198;28;96618;-91
2023/09/23 06:58:14;;;;;;;7.05;3.20;;;19.70;99.90;;;18.30;100.00;99711.66;10248782;28;97206;-92
2023/09/23 07:03:18;;;;;;;8.70;3.42;;;19.60;99.90;;;18.16;100.00;99736.03;10217988;28;98547;-91
2023/09/23 07:08:22;;;;;;;10.35;3.72;;;19.40;99.90;;;18.08;100.00;99763.25;10233058;28;96829;-92
2023/09/23 07:13:26;;;;;;;7.38;3.15;;;19.30;99.90;;;18.02;100.00;99774.09;10255517;28;96611;-92
2023/09/23 07:18:30;;;;;;;6.68;4.07;;;19.30;99.90;;;18.01;100.00;99784.03;10255122;28;96558;-93
2023/09/23 07:23:36;;;;;;;7.78;3.50;;;19.20;99.90;;;17.98;100.00;99773.69;10244697;28;96690;-94
2023/09/23 07:28:40;;;;;;;7.35;3.53;;;19.20;99.90;;;17.96;100.00;99809.94;10266537;28;96621;-94
2023/09/23 07:33:44;;;;;;;8.88;3.20;;;19.20;99.90;;;17.95;100.00;99800.22;10268277;28;96638;-94
2023/09/23 07:38:49;;;;;;;7.13;3.40;;;19.20;99.90;;;17.95;100.00;99802.94;10272012;28;96741;-94
2023/09/23 07:43:52;;;;;;;6.82;3.05;;;19.10;99.90;;;17.92;100.00;99823.00;10271927;28;96592;-92
2023/09/23 07:48:57;;;;;;;5.22;2.85;;;19.10;99.90;;;17.85;100.00;99828.44;10256107;28;96945;-93
2023/09/23 07:54:01;;;;;;;3.88;2.35;;;19.00;99.90;;;17.78;100.00;99816.97;10200724;28;97486;-94
2023/09/23 07:59:06;;;;;;;3.90;2.53;;;19.00;99.90;;;17.70;100.00;99821.78;10272686;28;96608;-95
2023/09/23 08:04:09;;;;;;;4.15;2.63;;;18.90;99.90;;;17.63;100.00;99786.91;10258485;28;97518;-95
2023/09/23 08:09:40;;;;;;;;;;;18.90;99.90;;;17.63;100.00;99777.00;10257116;28;96627;-95
2023/09/23 08:14:44;;;;;;;4.40;2.75;;;18.80;99.90;;;17.64;100.00;99743.72;10252508;28;96736;-96
2023/09/23 08:19:48;;;;;;;4.95;2.75;;;18.90;99.90;;;17.73;100.00;99714.69;10201963;28;96452;-96
2023/09/23 08:24:52;;;;;;;4.40;2.45;;;19.00;99.90;;;17.86;100.00;99679.56;10202707;28;96412;-96
2023/09/23 08:29:56;;;;;;;4.57;2.55;;;19.10;99.90;;;18.02;100.00;99655.78;10213998;28;96489;-96
2023/09/23 08:35:00;;;;;;;5.55;2.92;;;19.20;99.90;;;18.13;100.00;99668.44;10219079;28;96473;-96
2023/09/23 08:40:11;;;;;;;4.10;2.63;;;19.30;99.90;;;18.19;100.00;99664.84;10277304;28;96512;-96
2023/09/23 08:45:15;;;;;;;5.32;2.53;;;19.40;99.90;;;18.30;100.00;99677.50;10261393;28;96659;-96
2023/09/23 08:50:26;;;;;;;4.47;2.72;;;19.50;99.90;;;18.43;100.00;99684.53;10208610;28;96565;-96
2023/09/23 08:55:30;;;;;;;3.55;2.50;;;19.70;99.90;;;18.52;100.00;99683.13;10260261;28;96680;-96
2023/09/23 09:00:34;;;;;;;6.85;3.15;;;19.80;99.90;;;18.61;100.00;99705.97;10278221;28;96717;-94
2023/09/23 09:05:40;;;;;;;6.53;3.50;;;19.80;99.90;;;18.71;100.00;99697.34;10246971;28;97458;-96
2023/09/23 09:10:44;;;;;;;9.95;3.60;;;19.90;99.90;;;18.82;100.00;99712.66;10262466;28;98395;-93
2023/09/23 09:15:47;;;;;;;4.65;2.80;;;20.00;99.90;;;19.01;100.00;99745.69;10277822;28;96647;-95
2023/09/23 09:20:52;;;;;;;4.40;2.47;;;20.20;99.90;;;19.03;100.00;99754.38;10241884;28;96575;-94
2023/09/23 09:25:56;;;;;;;4.75;2.75;;;20.30;99.90;;;19.14;100.00;99760.81;10277343;28;96482;-95
2023/09/23 09:31:00;;;;;;;4.72;2.33;;;20.30;99.90;;;19.14;100.00;99769.72;10276007;28;96725;-94
2023/09/23 09:36:07;;;;;;;3.05;1.92;;;20.30;99.90;;;19.12;100.00;99768.28;10275821;28;96552;-95
2023/09/23 09:41:19;;;;;;;5.57;2.00;;;20.30;99.90;;;19.11;100.00;99785.50;10276396;28;96431;-95
2023/09/23 09:46:29;;;;;;;3.33;2.30;;;20.30;99.90;;;19.19;100.00;99769.00;10245999;28;96504;-95
2023/09/23 09:51:35;;;;;;;2.53;1.75;;;20.40;99.90;;;19.27;100.00;99771.34;10244784;28;96594;-94
2023/09/23 09:56:40;;;;;;;3.80;2.17;;;20.40;99.90;;;19.38;100.00;99772.41;10250953;28;96484;-95
2023/09/23 10:01:51;;;;;;;4.50;1.85;;;20.50;99.90;;;19.52;100.00;99757.59;10261738;28;96675;-95
2023/09/23 10:06:55;;;;;;;;;;;20.60;99.90;;;19.77;100.00;99762.75;10255086;28;97151;-93
2023/09/23 10:12:01;;;;;;;1.65;1.08;;;20.80;99.90;;;20.02;100.00;99757.84;10235382;28;96610;-94
2023/09/23 10:17:07;;;;;;;2.72;1.58;;;21.10;99.90;;;20.13;100.00;99752.66;10259774;28;96682;-94
2023/09/23 10:22:20;;;;;;;4.30;1.92;;;21.30;99.90;;;20.04;100.00;99749.53;10265335;28;96581;-93
2023/09/23 10:27:25;;;;;;;2.25;1.27;;;21.30;99.90;;;20.12;100.00;99754.53;10254786;28;96917;-93
2023/09/23 10:32:29;;;;;;;4.45;1.80;;;21.30;99.90;;;20.22;100.00;99776.31;10251281;28;98195;-94
2023/09/23 10:37:35;;;;;;;3.17;1.73;;;21.30;99.90;;;20.05;100.00;99778.13;10273707;28;96647;-94
2023/09/23 10:42:46;;;;;;;5.88;1.80;;;21.20;99.90;;;19.87;100.00;99771.03;10270707;28;96693;-94
2023/09/23 10:47:50;;;;;;;3.85;1.85;;;21.00;99.90;;;19.73;100.00;99775.03;10262998;28;97023;-95
2023/09/23 10:52:54;;;;;;;1.95;1.55;;;20.90;99.90;;;19.62;100.00;99765.13;10268047;28;97292;-92
2023/09/23 10:57:58;;;;;;;2.70;1.70;;;20.80;99.90;;;19.48;100.00;99757.25;10277912;28;97096;-94
2023/09/23 11:03:15;;;;;;;2.20;1.38;;;20.70;99.90;;;19.46;100.00;99762.06;10227891;28;96594;-95
2023/09/23 11:08:21;;;;;;;1.90;1.50;;;20.60;99.90;;;19.46;100.00;99777.41;10217939;28;96756;-95
2023/09/23 11:13:26;;;;;;;2.83;2.13;;;20.60;99.90;;;19.39;100.00;99785.63;10259355;28;100272;-96
2023/09/23 11:18:33;;;;;;;4.85;3.00;;;20.60;99.90;;;19.27;100.00;99808.25;10238362;28;97482;-95
2023/09/23 11:23:38;;;;;;;3.40;2.63;;;20.50;99.90;;;19.06;100.00;99815.00;10253074;28;96625;-95
2023/09/23 11:28:42;;;;;;;2.83;2.15;;;20.30;99.90;;;18.91;100.00;99818.16;10263562;28;96763;-95
2023/09/23 11:33:47;;;;;;;3.00;2.10;;;20.10;99.90;;;19.13;100.00;99842.63;10274282;28;99080;-95
2023/09/23 11:38:50;;;;;;;3.97;2.22;;;20.20;99.90;;;19.50;100.00;99835.19;10243286;28;96629;-95
2023/09/23 11:43:54;;;;;;;3.47;1.52;;;20.50;99.90;;;19.70;99.15;99818.66;10240900;28;97354;-94
2023/09/23 11:48:59;;;;;;;2.10;1.42;;;20.70;99.90;;;19.69;95.40;99817.84;10233926;28;96702;-94
2023/09/23 11:54:02;;;;;;;5.35;1.77;;;20.80;99.90;;;19.59;93.77;99816.81;10249112;28;97471;-95
2023/09/23 11:59:06;;;;;;;2.25;1.95;;;20.70;99.90;;;19.37;93.07;99830.84;10290556;28;96654;-95
2023/09/23 12:04:12;;;;;;;2.10;1.80;;;20.50;99.90;;;19.18;93.29;99848.97;10256017;28;96643;-93
2023/09/23 12:09:17;;;;;;;2.47;1.67;;;20.30;99.90;;;18.87;93.37;99895.84;10272974;28;96535;-92
2023/09/23 12:14:21;;;;;;;2.22;1.73;;;20.00;99.90;;;18.60;96.92;99884.63;10275726;28;96659;-93
2023/09/23 12:19:25;;;;;;;3.00;2.30;;;19.70;99.90;;;18.43;98.66;99879.06;10242903;28;97052;-93
2023/09/23 12:24:28;;;;;;;4.75;3.42;;;19.60;99.90;;;18.27;99.26;99876.16;10243056;28;96652;-93
2023/09/23 12:29:32;;;;;;;3.00;2.40;;;19.40;99.90;;;18.14;100.00;99894.09;10265520;28;96651;-93
2023/09/23 12:34:36;;;;;;;4.07;2.83;;;19.30;99.90;;;18.06;100.00;99901.66;10269125;28;97482;-94
2023/09/23 12:39:40;;;;;;;4.10;2.70;;;19.20;99.90;;;17.92;100.00;99890.19;10243744;28;96581;-93
2023/09/23 12:44:44;;;;;;;3.97;2.58;;;19.10;99.90;;;17.84;100.00;99902.06;10245863;28;96884;-93
2023/09/23 12:49:49;;;;;;;5.35;2.45;;;19.00;99.90;;;17.85;100.00;99919.84;10251159;28;96548;-94
2023/09/23 12:54:52;;;;;;;3.05;2.08;;;19.00;99.90;;;17.78;100.00;99913.72;10258501;28;97154;-93
2023/09/23 12:59:56;;;;;;;3.70;2.22;;;18.90;99.90;;;17.72;100.00;99906.53;10249424;28;97197;-92
2023/09/23 13:05:00;;;;;;;2.28;1.70;;;18.90;99.90;;;17.71;100.00;99912.09;10221825;28;96664;-95
2023/09/23 13:10:05;;;;;;;2.42;1.10;;;18.80;99.90;;;17.66;100.00;99929.72;10255830;28;96905;-94
2023/09/23 13:15:09;;;;;;;1.42;0.90;;;18.80;99.90;;;17.60;100.00;99922.53;10275780;28;96565;-96
2023/09/23 13:20:13;;;;;;;1.42;1.05;;;18.70;99.90;;;17.55;100.00;99925.03;10271673;28;96611;-96
2023/09/23 13:25:17;;;;;;;1.52;1.00;;;18.70;99.90;;;17.55;100.00;99924.22;10272996;28;96655;-96
2023/09/23 13:30:20;;;;;;;1.50;1.10;;;18.70;99.90;;;17.59;100.00;99912.81;10277919;28;96729;-95
2023/09/23 13:35:24;;;;;;;2.22;1.27;;;18.70;99.90;;;17.58;100.00;99903.13;10287439;28;97176;-92
2023/09/23 13:40:29;;;;;;;2.03;1.42;;;18.70;99.90;;;17.57;100.00;99903.31;10287363;28;97460;-95
2023/09/23 13:45:32;;;;;;;1.65;1.30;;;18.70;99.90;;;17.52;100.00;99909.38;10276830;28;96901;-93
2023/09/23 13:50:37;;;;;;;1.52;1.08;;;18.70;99.90;;;17.56;100.00;99907.88;10268587;28;97106;-93
2023/09/23 13:55:43;;;;;;;1.55;1.20;;;18.70;99.90;;;17.51;100.00;99910.44;10245961;28;96509;-95
2023/09/23 14:00:47;;;;;;;1.63;1.05;;;18.70;99.90;;;17.50;100.00;99919.50;10262610;28;96626;-93
2023/09/23 14:05:51;;;;;;;2.58;1.20;;;18.70;99.90;;;17.53;100.00;99931.69;10261719;28;96696;-93
2023/09/23 14:10:55;;;;;;;1.55;1.02;;;18.60;99.90;;;17.52;100.00;99935.44;10291915;28;97219;-95
2023/09/23 14:15:59;;;;;;;1.42;0.80;;;18.70;99.90;;;17.52;100.00;99943.47;10267995;28;97469;-94
2023/09/23 14:21:03;;;;;;;3.10;1.00;;;18.70;99.90;;;17.51;99.62;99947.19;10249556;28;96600;-94
2023/09/23 14:26:06;;;;;;;1.70;1.10;;;18.70;99.90;;;17.43;99.44;99934.03;10259739;28;96532;-94
2023/09/23 14:31:11;;;;;;;1.90;1.15;;;18.70;99.90;;;17.32;99.99;99928.31;10273411;28;96687;-94
2023/09/23 14:36:15;;;;;;;3.33;1.70;;;18.50;99.90;;;17.26;100.00;99918.47;10275134;28;96457;-93
2023/09/23 14:41:18;;;;;;;1.40;1.15;;;18.40;99.90;;;17.25;100.00;99908.75;10257164;28;96630;-94
2023/09/23 14:46:22;;;;;;;4.90;1.98;;;18.40;99.90;;;17.27;100.00;99911.22;10230002;28;96528;-93
2023/09/23 14:51:26;;;;;;;2.10;1.55;;;18.40;99.90;;;17.25;100.00;99902.56;10286912;28;96713;-95
2023/09/23 14:56:34;;;;;;;1.85;1.25;;;18.40;99.90;;;17.25;100.00;99914.13;10258684;28;96508;-94
2023/09/23 15:01:41;;;;;;;2.15;1.60;;;18.40;99.90;;;17.27;100.00;99909.38;10261968;28;98390;-95
2023/09/23 15:06:51;;;;;;;1.05;0.95;;;18.50;99.90;;;17.28;100.00;99911.03;10285607;28;96668;-95
2023/09/23 15:11:55;;;;;;;1.30;0.90;;;18.50;99.90;;;17.29;99.65;99917.22;10267341;28;96661;-94
2023/09/23 15:16:59;;;;;;;1.20;0.90;;;18.50;99.90;;;17.23;98.67;99913.53;10279169;28;96667;-96
2023/09/23 15:22:03;;;;;;;1.35;0.80;;;18.40;99.90;;;17.26;98.86;99921.13;10243681;28;96593;-96
2023/09/23 15:27:07;;;;;;;0.60;0.40;;;18.40;99.90;;;17.27;99.33;99917.44;10295126;28;96600;-96
2023/09/23 15:32:11;;;;;;;0.90;0.77;;;18.50;99.90;;;17.27;98.12;99919.28;10273259;28;96741;-95
2023/09/23 15:37:14;;;;;;;0.98;0.40;;;18.50;99.90;;;17.18;97.70;99916.06;10247028;28;98174;-95
2023/09/23 15:42:18;;;;;;;1.10;0.77;;;18.40;99.90;;;17.13;97.57;99923.94;10244385;28;96636;-95
2023/09/23 15:47:22;;;;;;;1.00;0.70;;;18.30;99.90;;;17.08;98.03;99929.13;10253294;28;97145;-94
2023/09/23 15:52:26;;;;;;;1.80;0.70;;;18.30;99.90;;;17.03;98.08;99932.47;10216285;28;97151;-96
2023/09/23 15:57:30;;;;;;;0.90;0.60;;;18.20;99.90;;;17.03;98.47;99937.84;10231708;28;96692;-94
2023/09/23 16:02:35;;;;;;;0.93;0.70;;;18.20;99.90;;;17.04;97.67;99949.41;10233032;28;97357;-96
2023/09/23 16:07:39;;;;;;;1.40;0.68;;;18.20;99.90;;;16.93;97.35;99944.72;10237700;28;96718;-96
2023/09/23 16:12:43;;;;;;;0.65;0.57;;;18.20;99.90;;;16.94;97.21;99941.00;10274039;28;97275;-96
2023/09/23 16:17:47;;;;;;;1.15;0.50;;;18.10;99.90;;;16.96;97.60;99941.59;10239779;28;96631;-95
2023/09/23 16:22:51;;;;;;;0.60;0.55;;;18.10;99.90;;;16.95;97.78;99929.22;10250203;28;96898;-95
2023/09/23 16:27:54;;;;;;;1.13;0.50;;;18.10;99.90;;;16.92;98.38;99940.41;10269455;28;97314;-95
2023/09/23 16:32:59;;;;;;;0.82;0.50;;;18.10;99.90;;;16.89;98.87;99948.88;10289015;28;96729;-95
2023/09/23 16:38:03;;;;;;;1.08;0.60;;;18.10;99.90;;;16.84;98.80;99950.31;10284457;28;96524;-94
2023/09/23 16:43:08;;;;;;;0.85;0.43;;;18.10;99.90;;;16.82;99.31;99949.72;10252615;28;96644;-95
2023/09/23 16:48:12;;;;;;;1.23;0.73;;;18.00;99.90;;;16.78;99.76;99948.50;10271813;28;96468;-95
2023/09/23 16:53:16;;;;;;;1.42;0.63;;;18.00;99.90;;;16.75;100.00;99967.72;10287690;28;96675;-94
2023/09/23 16:58:20;;;;;;;1.15;0.60;;;18.00;99.90;;;16.73;100.00;99991.28;10260385;28;96584;-95
2023/09/23 17:03:23;;;;;;;1.33;0.60;;;18.00;99.90;;;16.67;100.00;99985.88;10244798;28;96982;-94
2023/09/23 17:08:27;;;;;;;1.20;0.60;;;17.90;99.90;;;16.65;100.00;100004.06;10278491;28;96533;-95
2023/09/23 17:13:31;;;;;;;1.70;0.80;;;17.90;99.90;;;16.65;100.00;100015.59;10260098;28;96774;-95
2023/09/23 17:18:37;;;;;;;1.65;0.65;;;17.90;99.90;;;16.63;100.00;100023.06;10260961;28;96614;-95
2023/09/23 17:23:40;;;;;;;1.13;0.65;;;17.80;99.90;;;16.66;100.00;100038.72;10259120;28;96650;-96
2023/09/23 17:28:44;;;;;;;1.23;0.75;;;17.90;99.90;;;16.69;100.00;100043.66;10278353;28;96957;-96
2023/09/23 17:33:48;;;;;;;2.45;0.68;;;17.90;99.90;;;16.74;100.00;100056.50;10242228;28;97262;-95
2023/09/23 17:38:52;;;;;;;0.50;0.38;;;18.00;99.90;;;16.72;100.00;100051.31;10238901;28;96515;-94
2023/09/23 17:43:56;;;;;;;2.88;0.60;;;18.00;99.90;;;16.70;100.00;100033.75;10258294;28;98089;-93
2023/09/23 17:48:59;;;;;;;0.57;0.38;;;18.00;99.90;;;16.69;100.00;100032.13;10264587;28;97339;-94
2023/09/23 17:54:04;;;;;;;0.57;0.43;;;17.90;99.90;;;16.62;100.00;100034.81;10256858;28;97367;-94
2023/09/23 17:59:08;;;;;;;0.70;0.50;;;17.90;99.90;;;16.54;100.00;100024.31;10253798;28;97299;-95
2023/09/23 18:04:12;;;;;;;1.15;0.60;;;17.80;99.90;;;16.51;100.00;100005.97;10274296;28;96627;-95
2023/09/23 18:09:17;;;;;;;0.40;0.40;;;17.70;99.90;;;16.51;100.00;100014.84;10251827;28;96649;-94
2023/09/23 18:14:20;;;;;;;0.60;0.40;;;17.70;99.90;;;16.48;100.00;99995.63;10246121;28;96851;-94
2023/09/23 18:19:24;;;;;;;1.20;0.60;;;17.70;99.90;;;16.45;100.00;99988.84;10259821;28;97679;-93
2023/09/23 18:24:28;;;;;;;1.10;0.65;;;17.70;99.90;;;16.44;100.00;99986.41;10273778;28;96564;-94
2023/09/23 18:29:32;;;;;;;1.08;0.70;;;17.70;99.90;;;16.42;100.00;99977.72;10255068;28;98750;-93
2023/09/23 18:34:36;;;;;;;0.85;0.50;;;17.70;99.90;;;16.39;100.00;99973.59;10272429;28;96829;-93
2023/09/23 18:39:40;;;;;;;1.45;0.73;;;17.60;99.90;;;16.31;100.00;99965.78;10223161;28;98063;-93
2023/09/23 18:44:44;;;;;;;0.98;0.68;;;17.60;99.90;;;16.23;100.00;99961.47;10259078;28;97415;-93
2023/09/23 18:49:48;;;;;;;1.50;0.90;;;17.50;99.90;;;16.19;100.00;99954.06;10273043;28;98778;-93
2023/09/23 18:54:53;;;;;;;1.70;0.85;;;17.50;99.90;;;16.16;100.00;99955.31;10258528;28;96596;-92
2023/09/23 18:59:58;;;;;;;1.92;1.00;;;17.40;99.90;;;16.13;100.00;99936.13;10326582;28;96177;-93
2023/09/23 19:05:05;;;;;;;1.80;1.13;;;17.40;99.90;;;16.11;100.00;99954.28;10310636;28;98498;-94
2023/09/23 19:10:10;;;;;;;1.33;1.00;;;17.40;99.90;;;16.09;100.00;99964.41;10314219;28;97649;-93
2023/09/23 19:15:15;;;;;;;2.72;1.17;;;17.40;99.90;;;16.07;100.00;99964.59;10281053;28;97739;-93
2023/09/23 19:20:20;;;;;;;2.17;1.40;;;17.40;99.90;;;16.08;100.00;99968.13;10267609;28;96608;-94
2023/09/23 19:25:23;;;;;;;1.50;1.00;;;17.40;99.90;;;16.07;100.00;99991.41;10248209;28;96707;-93
2023/09/23 19:30:27;;;;;;;2.22;1.17;;;17.30;99.90;;;16.05;100.00;99999.66;10258772;28;98505;-93
2023/09/23 19:35:36;;;;;;;1.63;0.90;;;17.30;99.90;;;16.02;100.00;100012.66;10226251;28;97325;-93
2023/09/23 19:40:43;;;;;;;1.25;0.90;;;17.30;99.90;;;15.97;100.00;100007.09;10239752;28;97407;-93
2023/09/23 19:45:55;;;;;;;2.15;1.23;;;17.20;99.90;;;15.99;100.00;100016.56;10230490;28;97260;-92
2023/09/23 19:50:59;;;;;;;2.72;1.00;;;17.20;99.90;;;15.98;100.00;100016.78;10261624;28;98234;-94
2023/09/23 19:56:03;;;;;;;1.05;0.85;;;17.20;99.90;;;15.99;100.00;100021.94;10246712;28;96522;-94
2023/09/23 20:01:08;;;;;;;1.67;1.13;;;17.20;99.90;;;15.98;100.00;100012.25;10240760;28;96743;-94
2023/09/23 20:06:14;;;;;;;2.15;1.13;;;17.20;99.90;;;15.94;100.00;100013.69;10267654;28;97333;-94
2023/09/23 20:11:24;;;;;;;1.75;1.20;;;17.20;99.90;;;15.89;100.00;100004.63;10228043;28;96651;-95
2023/09/23 20:16:32;;;;;;;2.75;1.10;;;17.20;99.90;;;15.83;100.00;100010.81;10222503;28;96692;-95
2023/09/23 20:21:38;;;;;;;2.03;1.50;;;17.10;99.90;;;15.77;100.00;100007.09;10256869;28;96991;-94
2023/09/23 20:26:42;;;;;;;1.75;1.23;;;17.00;99.90;;;15.71;100.00;100006.09;10262132;28;96568;-94
2023/09/23 20:31:53;;;;;;;3.72;1.60;;;17.00;99.90;;;15.65;100.00;100012.25;10255532;28;98236;-95
2023/09/23 20:36:58;;;;;;;;;;;16.90;99.90;;;15.56;100.00;100010.78;10254640;28;96665;-96
2023/09/23 20:42:03;;;;;;;2.58;1.52;;;16.90;99.90;;;15.52;100.00;100010.34;10248193;28;96559;-95
2023/09/23 20:47:07;;;;;;;2.35;1.73;;;16.80;99.90;;;15.50;100.00;99999.03;10266902;28;96732;-95
2023/09/23 20:52:10;;;;;;;2.75;1.58;;;16.80;99.90;;;15.45;100.00;100006.03;10244661;28;96448;-96
2023/09/23 20:57:15;;;;;;;1.60;1.30;;;16.80;99.90;;;15.42;100.00;100009.94;10261194;28;97197;-96